createdAt,value
2023-01-12T00:02:20.191Z,7.60
2023-01-12T00:04:48.242Z,7.70
2023-01-12T00:07:17.869Z,7.80
2023-01-12T00:09:46.053Z,7.80
2023-01-12T00:12:14.069Z,7.90
2023-01-12T00:14:42.090Z,8.00
2023-01-12T00:17:11.799Z,8.00
2023-01-12T00:19:41.157Z,7.90
2023-01-12T00:22:11.865Z,7.90
2023-01-12T00:24:43.816Z,7.90
2023-01-12T00:27:15.072Z,8.10
2023-01-12T00:29:43.567Z,8.20
2023-01-12T00:32:14.807Z,8.20
2023-01-12T00:34:45.059Z,8.00
2023-01-12T00:37:14.285Z,8.00
2023-01-12T00:39:48.957Z,8.20
2023-01-12T00:42:54.136Z,8.10
2023-01-12T00:45:25.236Z,8.20
2023-01-12T00:47:54.269Z,8.20
2023-01-12T00:50:24.107Z,8.40
2023-01-12T00:52:52.091Z,8.30
2023-01-12T00:55:20.132Z,8.40
2023-01-12T00:57:48.139Z,8.40
2023-01-12T01:00:18.058Z,8.50
2023-01-12T01:02:46.155Z,8.40
2023-01-12T01:05:14.243Z,8.40
2023-01-12T01:07:43.608Z,8.50
2023-01-12T01:10:13.636Z,8.50
2023-01-12T01:12:41.701Z,8.50
2023-01-12T01:15:11.042Z,8.50
2023-01-12T01:17:39.008Z,8.70
2023-01-12T01:20:08.007Z,8.60
2023-01-12T01:22:36.074Z,8.60
2023-01-12T01:25:06.453Z,8.70
2023-01-12T01:27:34.460Z,8.60
2023-01-12T01:30:02.484Z,8.60
2023-01-12T01:32:30.486Z,8.60
2023-01-12T01:34:58.504Z,8.70
2023-01-12T01:37:26.495Z,8.70
2023-01-12T01:39:56.138Z,8.70
2023-01-12T01:42:29.918Z,8.70
2023-01-12T01:45:00.201Z,8.80
2023-01-12T01:47:42.719Z,8.80
2023-01-12T01:50:18.106Z,8.80
2023-01-12T01:52:51.275Z,8.60
2023-01-12T01:55:23.722Z,8.60
2023-01-12T01:57:58.323Z,8.60
2023-01-12T02:00:26.900Z,8.80
2023-01-12T02:02:56.397Z,8.60
2023-01-12T02:05:28.915Z,8.50
2023-01-12T02:08:03.434Z,8.60
2023-01-12T02:10:31.442Z,8.70
2023-01-12T02:13:18.633Z,8.70
2023-01-12T02:16:14.026Z,8.70
2023-01-12T02:18:55.018Z,8.60
2023-01-12T02:22:03.369Z,8.70
2023-01-12T02:24:58.005Z,8.70
2023-01-12T02:27:54.099Z,8.80
2023-01-12T02:31:28.564Z,8.60
2023-01-12T02:34:09.446Z,8.60
2023-01-12T02:36:47.577Z,8.70
2023-01-12T02:39:22.721Z,8.80
2023-01-12T02:42:20.113Z,8.70
2023-01-12T02:44:56.633Z,8.80
2023-01-12T02:47:35.930Z,8.80
2023-01-12T02:50:07.684Z,8.90
2023-01-12T02:52:36.112Z,8.70
2023-01-12T02:55:06.233Z,8.70
2023-01-12T02:57:36.805Z,8.80
2023-01-12T03:00:07.741Z,8.70
2023-01-12T03:02:39.004Z,8.80
2023-01-12T03:05:08.414Z,8.80
2023-01-12T03:07:46.886Z,8.90
2023-01-12T03:10:37.618Z,8.90
2023-01-12T03:13:11.442Z,8.90
2023-01-12T03:15:43.701Z,8.90
2023-01-12T03:18:17.859Z,9.00
2023-01-12T03:20:51.260Z,8.90
2023-01-12T03:23:24.061Z,8.90
2023-01-12T03:25:54.221Z,8.80
2023-01-12T03:28:26.033Z,8.90
2023-01-12T03:31:02.044Z,8.80
2023-01-12T03:33:31.399Z,8.80
2023-01-12T03:36:13.120Z,8.80
2023-01-12T03:38:50.302Z,8.80
2023-01-12T03:41:28.028Z,8.90
2023-01-12T03:44:02.651Z,8.80
2023-01-12T03:46:36.559Z,8.90
2023-01-12T03:49:12.653Z,8.80
2023-01-12T03:51:45.254Z,8.80
2023-01-12T03:54:15.321Z,8.80
2023-01-12T03:56:46.379Z,8.70
2023-01-12T03:59:15.227Z,8.70
2023-01-12T04:01:44.063Z,8.80
2023-01-12T04:04:13.424Z,8.80
2023-01-12T04:06:41.712Z,8.80
2023-01-12T04:09:09.773Z,8.80
2023-01-12T04:11:55.515Z,8.80
2023-01-12T04:14:23.538Z,8.90
2023-01-12T04:16:51.595Z,8.90
2023-01-12T04:19:20.989Z,9.00
2023-01-12T04:22:06.641Z,9.00
2023-01-12T04:24:34.616Z,9.10
2023-01-12T04:27:02.562Z,9.20
2023-01-12T04:29:30.571Z,9.00
2023-01-12T04:31:58.661Z,9.00
2023-01-12T04:34:28.019Z,8.90
2023-01-12T04:36:55.976Z,9.10
2023-01-12T04:39:24.219Z,9.00
2023-01-12T04:41:52.190Z,9.00
2023-01-12T04:44:20.310Z,9.00
2023-01-12T04:46:49.701Z,8.80
2023-01-12T04:49:18.032Z,8.90
2023-01-12T04:51:47.351Z,8.80
2023-01-12T04:54:15.409Z,8.60
2023-01-12T04:56:43.383Z,8.80
2023-01-12T04:59:11.347Z,8.80
2023-01-12T05:01:39.756Z,8.70
2023-01-12T05:04:08.281Z,8.80
2023-01-12T05:06:36.338Z,8.90
2023-01-12T05:09:23.408Z,8.80
2023-01-12T05:11:51.361Z,8.60
2023-01-12T05:14:19.369Z,8.70
2023-01-12T05:16:47.464Z,8.70
2023-01-12T05:19:15.646Z,8.70
2023-01-12T05:21:43.776Z,8.70
2023-01-12T05:24:13.078Z,8.80
2023-01-12T05:26:41.063Z,9.00
2023-01-12T05:29:10.121Z,9.10
2023-01-12T05:31:38.176Z,9.00
2023-01-12T05:34:09.914Z,9.00
2023-01-12T05:36:37.939Z,9.10
2023-01-12T05:39:06.672Z,9.20
2023-01-12T05:41:36.020Z,9.10
2023-01-12T05:44:03.451Z,9.20
2023-01-12T05:46:34.142Z,9.00
2023-01-12T05:49:02.140Z,9.10
2023-01-12T05:51:30.890Z,9.20
2023-01-12T05:53:58.962Z,9.00
2023-01-12T05:56:28.615Z,9.10
2023-01-12T05:59:02.319Z,9.00
2023-01-12T06:01:31.814Z,9.20
2023-01-12T06:04:01.987Z,9.10
2023-01-12T06:06:39.410Z,9.20
2023-01-12T06:09:07.405Z,9.10
2023-01-12T06:11:53.247Z,9.00
2023-01-12T06:14:22.551Z,8.90
2023-01-12T06:16:50.553Z,8.80
2023-01-12T06:19:18.577Z,8.80
2023-01-12T06:21:46.696Z,8.60
2023-01-12T06:24:14.776Z,8.70
2023-01-12T06:26:45.056Z,8.70
2023-01-12T06:29:13.689Z,8.60
2023-01-12T06:31:43.780Z,8.80
2023-01-12T06:34:12.045Z,8.60
2023-01-12T06:36:40.721Z,8.60
2023-01-12T06:39:08.660Z,8.70
2023-01-12T06:42:05.618Z,8.70
2023-01-12T06:44:33.617Z,8.70
2023-01-12T06:47:07.452Z,8.70
2023-01-12T06:49:35.424Z,8.80
2023-01-12T06:52:03.497Z,8.60
2023-01-12T06:54:34.837Z,8.60
2023-01-12T06:57:02.824Z,8.70
2023-01-12T06:59:30.937Z,8.70
2023-01-12T07:01:58.977Z,8.50
2023-01-12T07:04:28.670Z,8.30
2023-01-12T07:06:56.896Z,8.20
2023-01-12T07:09:24.918Z,8.60
2023-01-12T07:11:52.893Z,8.60
2023-01-12T07:14:21.128Z,8.70
2023-01-12T07:16:49.133Z,8.80
2023-01-12T07:19:17.125Z,8.70
2023-01-12T07:21:46.442Z,8.70
2023-01-12T07:24:14.427Z,8.60
2023-01-12T07:26:42.407Z,8.50
2023-01-12T07:29:11.208Z,8.40
2023-01-12T07:31:40.381Z,8.60
2023-01-12T07:34:08.372Z,8.70
2023-01-12T07:36:36.379Z,8.70
2023-01-12T07:39:05.850Z,8.80
2023-01-12T07:41:51.502Z,8.80
2023-01-12T07:44:19.469Z,8.80
2023-01-12T07:46:47.537Z,8.90
2023-01-12T07:49:16.121Z,8.80
2023-01-12T07:51:44.169Z,8.80
2023-01-12T07:54:13.462Z,9.00
2023-01-12T07:56:44.232Z,9.00
2023-01-12T07:59:12.519Z,8.90
2023-01-12T08:01:41.103Z,8.80
2023-01-12T08:04:09.365Z,8.90
2023-01-12T08:06:37.469Z,8.90
2023-01-12T08:09:05.624Z,8.80
2023-01-12T08:11:34.962Z,8.80
2023-01-12T08:14:04.815Z,8.80
2023-01-12T08:16:38.942Z,8.90
2023-01-12T08:19:11.485Z,8.80
2023-01-12T08:21:46.006Z,8.80
2023-01-12T08:24:18.940Z,8.70
2023-01-12T08:26:50.179Z,8.90
2023-01-12T08:29:29.776Z,8.90
2023-01-12T08:32:01.648Z,8.90
2023-01-12T08:34:32.529Z,8.80
2023-01-12T08:37:04.794Z,8.80
2023-01-12T08:39:36.216Z,8.80
2023-01-12T08:42:06.080Z,9.00
2023-01-12T08:44:35.046Z,9.00
2023-01-12T08:47:06.290Z,8.90
2023-01-12T08:49:35.324Z,8.90
2023-01-12T08:52:03.470Z,8.80
2023-01-12T08:54:31.750Z,8.90
2023-01-12T08:56:59.765Z,8.80
2023-01-12T08:59:31.509Z,8.90
2023-01-12T09:01:59.620Z,8.90
2023-01-12T09:04:27.838Z,8.70
2023-01-12T09:06:57.343Z,8.70
2023-01-12T09:09:29.519Z,8.60
2023-01-12T09:11:59.349Z,8.60
2023-01-12T09:14:29.469Z,8.50
2023-01-12T09:16:57.623Z,8.60
2023-01-12T09:19:25.706Z,8.60
2023-01-12T09:21:53.776Z,8.70
2023-01-12T09:24:21.973Z,8.80
2023-01-12T09:26:49.971Z,9.00
2023-01-12T09:29:17.978Z,8.90
2023-01-12T09:31:47.397Z,8.90
2023-01-12T09:34:15.852Z,8.90
2023-01-12T09:36:46.852Z,9.00
2023-01-12T09:39:27.260Z,9.10
2023-01-12T09:42:15.242Z,8.90
2023-01-12T09:45:03.594Z,9.00
2023-01-12T09:47:39.588Z,9.10
2023-01-12T09:50:12.586Z,9.20
2023-01-12T09:52:46.047Z,9.10
2023-01-12T09:55:18.507Z,9.10
2023-01-12T09:58:14.831Z,9.20
2023-01-12T10:00:42.897Z,9.40
2023-01-12T10:03:26.861Z,9.60
2023-01-12T10:05:58.002Z,9.30
2023-01-12T10:08:35.917Z,9.50
2023-01-12T10:11:16.123Z,9.30
2023-01-12T10:14:30.093Z,9.30
2023-01-12T10:17:42.042Z,9.40
2023-01-12T10:20:28.129Z,9.30
2023-01-12T10:23:08.885Z,9.30
2023-01-12T10:25:45.467Z,9.50
2023-01-12T10:28:25.067Z,9.40
2023-01-12T10:30:56.409Z,9.40
2023-01-12T10:33:26.666Z,9.20
2023-01-12T10:36:02.847Z,9.40
2023-01-12T10:38:36.361Z,9.40
2023-01-12T10:41:18.965Z,9.40
2023-01-12T10:44:15.421Z,9.50
2023-01-12T10:46:43.745Z,9.60
2023-01-12T10:49:20.732Z,9.60
2023-01-12T10:51:56.111Z,9.60
2023-01-12T10:54:26.568Z,9.60
2023-01-12T10:57:00.078Z,9.70
2023-01-12T10:59:31.543Z,9.60
2023-01-12T11:02:16.196Z,9.80
2023-01-12T11:04:47.111Z,9.60
2023-01-12T11:07:21.735Z,9.80
2023-01-12T11:09:50.339Z,9.80
2023-01-12T11:12:28.079Z,9.70
2023-01-12T11:15:02.213Z,9.70
2023-01-12T11:17:58.851Z,9.40
2023-01-12T11:20:32.123Z,9.20
2023-01-12T11:23:05.434Z,9.30
2023-01-12T11:25:41.344Z,9.50
2023-01-12T11:28:17.156Z,9.60
2023-01-12T11:30:51.741Z,9.70
2023-01-12T11:33:24.420Z,9.60
2023-01-12T11:36:00.209Z,9.70
2023-01-12T11:38:37.357Z,9.80
2023-01-12T11:41:13.093Z,9.50
2023-01-12T11:43:52.398Z,9.70
2023-01-12T11:46:26.729Z,9.70
2023-01-12T11:49:12.509Z,9.60
2023-01-12T11:51:41.495Z,9.60
2023-01-12T11:54:16.742Z,9.60
2023-01-12T11:57:14.650Z,9.60
2023-01-12T11:59:57.068Z,9.60
2023-01-12T12:02:37.031Z,9.60
2023-01-12T12:05:22.783Z,9.50
2023-01-12T12:08:14.456Z,9.40
2023-01-12T12:10:53.093Z,9.50
2023-01-12T12:13:32.058Z,9.50
2023-01-12T12:16:22.277Z,9.50
2023-01-12T12:19:05.127Z,9.60
2023-01-12T12:21:51.267Z,9.60
2023-01-12T12:24:50.817Z,9.60
2023-01-12T12:27:36.183Z,9.50
2023-01-12T12:30:27.012Z,9.50
2023-01-12T12:33:05.953Z,9.40
2023-01-12T12:35:52.822Z,9.50
2023-01-12T12:38:33.373Z,9.60
2023-01-12T12:41:43.232Z,9.80
2023-01-12T12:44:50.917Z,9.80
2023-01-12T12:47:43.329Z,9.70
2023-01-12T12:50:19.656Z,9.70
2023-01-12T12:53:01.400Z,9.70
2023-01-12T12:55:29.392Z,9.60
2023-01-12T12:58:05.459Z,9.80
2023-01-12T13:00:42.776Z,9.70
2023-01-12T13:03:11.547Z,9.60
2023-01-12T13:05:47.880Z,9.70
2023-01-12T13:08:23.813Z,9.80
2023-01-12T13:10:55.645Z,9.70
2023-01-12T13:13:59.012Z,9.90
2023-01-12T13:16:52.990Z,9.90
2023-01-12T13:19:39.118Z,9.80
2023-01-12T13:22:30.168Z,10.00
2023-01-12T13:25:04.432Z,10.10
2023-01-12T13:27:55.177Z,10.10
2023-01-12T13:30:41.551Z,10.20
2023-01-12T13:33:28.103Z,9.80
2023-01-12T13:36:12.074Z,9.90
2023-01-12T13:39:07.183Z,10.20
2023-01-12T13:41:54.606Z,10.20
2023-01-12T13:44:29.629Z,10.30
2023-01-12T13:47:08.359Z,10.30
2023-01-12T13:49:47.646Z,10.30
2023-01-12T13:52:28.192Z,10.30
2023-01-12T13:54:59.570Z,10.30
2023-01-12T13:57:30.360Z,10.30
2023-01-12T14:00:00.450Z,10.30
2023-01-12T14:02:33.422Z,10.30
2023-01-12T14:05:22.020Z,10.40
2023-01-12T14:08:03.224Z,10.40
2023-01-12T14:10:42.779Z,10.40
2023-01-12T14:13:51.295Z,10.50
2023-01-12T14:16:38.677Z,10.50
2023-01-12T14:19:27.557Z,10.40
2023-01-12T14:22:03.297Z,10.40
2023-01-12T14:24:31.459Z,10.40
2023-01-12T14:26:59.453Z,10.60
2023-01-12T14:29:28.428Z,10.50
2023-01-12T14:31:56.592Z,10.50
2023-01-12T14:34:32.462Z,10.60
2023-01-12T14:37:04.436Z,10.50
2023-01-12T14:39:40.895Z,10.50
2023-01-12T14:42:35.794Z,10.50
2023-01-12T14:45:24.111Z,10.50
2023-01-12T14:47:52.168Z,10.60
2023-01-12T14:50:23.045Z,10.50
2023-01-12T14:52:53.649Z,10.50
2023-01-12T14:55:38.630Z,10.50
2023-01-12T14:58:07.519Z,10.60
2023-01-12T15:00:40.703Z,10.60
2023-01-12T15:03:26.302Z,10.50
2023-01-12T15:05:57.145Z,10.80
2023-01-12T15:08:28.508Z,10.60
2023-01-12T15:10:59.303Z,10.60
2023-01-12T15:13:30.513Z,10.80
2023-01-12T15:16:17.199Z,10.70
2023-01-12T15:19:00.729Z,10.80
2023-01-12T15:21:48.035Z,10.90
2023-01-12T15:24:44.091Z,10.80
2023-01-12T15:27:15.487Z,10.70
2023-01-12T15:29:45.513Z,10.90
2023-01-12T15:32:21.821Z,10.80
2023-01-12T15:34:51.485Z,10.80
2023-01-12T15:37:22.857Z,10.90
2023-01-12T15:39:53.439Z,10.90
2023-01-12T15:42:24.870Z,10.90
2023-01-12T15:44:55.231Z,10.90
2023-01-12T15:47:24.983Z,10.80
2023-01-12T15:49:54.894Z,10.90
2023-01-12T15:52:26.991Z,10.70
2023-01-12T15:54:57.642Z,10.70
2023-01-12T15:57:25.604Z,10.70
2023-01-12T15:59:53.604Z,10.50
2023-01-12T16:02:35.671Z,10.60
2023-01-12T16:05:05.602Z,10.50
2023-01-12T16:07:33.856Z,10.60
2023-01-12T16:10:03.327Z,10.50
2023-01-12T16:12:31.648Z,10.50
2023-01-12T16:15:00.975Z,10.40
2023-01-12T16:17:28.978Z,10.30
2023-01-12T16:19:56.993Z,10.40
2023-01-12T16:22:27.935Z,10.40
2023-01-12T16:24:58.369Z,10.40
2023-01-12T16:27:28.652Z,10.30
2023-01-12T16:29:56.684Z,10.30
2023-01-12T16:32:26.278Z,10.20
2023-01-12T16:34:54.877Z,10.30
2023-01-12T16:37:28.495Z,10.30
2023-01-12T16:39:56.819Z,10.40
2023-01-12T16:42:25.124Z,10.40
2023-01-12T16:44:54.658Z,10.20
2023-01-12T16:47:24.447Z,10.30
2023-01-12T16:49:54.090Z,10.50
2023-01-12T16:52:24.070Z,10.40
2023-01-12T16:54:52.772Z,10.50
2023-01-12T16:57:21.557Z,10.50
2023-01-12T16:59:51.386Z,10.60
2023-01-12T17:02:21.987Z,10.50
2023-01-12T17:04:53.152Z,10.50
2023-01-12T17:07:21.335Z,10.50
2023-01-12T17:09:49.429Z,10.40
2023-01-12T17:12:18.262Z,10.30
2023-01-12T17:14:49.045Z,10.50
2023-01-12T17:17:17.207Z,10.30
2023-01-12T17:19:46.779Z,10.50
2023-01-12T17:22:15.128Z,10.30
2023-01-12T17:24:43.230Z,10.40
2023-01-12T17:27:12.238Z,10.40
2023-01-12T17:29:40.387Z,10.40
2023-01-12T17:32:08.869Z,10.40
2023-01-12T17:34:39.430Z,10.50
2023-01-12T17:37:09.554Z,10.50
2023-01-12T17:39:39.908Z,10.40
2023-01-12T17:42:25.951Z,10.50
2023-01-12T17:44:53.988Z,10.60
2023-01-12T17:47:22.127Z,10.60
2023-01-12T17:49:50.174Z,10.50
2023-01-12T17:52:19.549Z,10.50
2023-01-12T17:54:47.592Z,10.30
2023-01-12T17:57:15.588Z,10.20
2023-01-12T17:59:43.636Z,10.30
2023-01-12T18:02:14.249Z,10.40
2023-01-12T18:04:42.645Z,10.40
2023-01-12T18:07:10.765Z,10.50
2023-01-12T18:09:41.934Z,10.60
2023-01-12T18:12:12.137Z,10.60
2023-01-12T18:14:40.292Z,10.50
2023-01-12T18:17:09.169Z,10.40
2023-01-12T18:19:37.356Z,10.40
2023-01-12T18:22:06.927Z,10.20
2023-01-12T18:24:37.702Z,10.40
2023-01-12T18:27:07.543Z,10.40
2023-01-12T18:29:35.716Z,10.30
2023-01-12T18:32:03.730Z,10.30
2023-01-12T18:34:31.777Z,10.30
2023-01-12T18:36:59.890Z,10.40
2023-01-12T18:39:27.888Z,10.60
2023-01-12T18:42:13.378Z,10.50
2023-01-12T18:44:42.873Z,10.60
2023-01-12T18:47:32.911Z,10.50
2023-01-12T18:50:20.999Z,10.60
2023-01-12T18:53:06.705Z,10.50
2023-01-12T18:55:37.309Z,10.50
2023-01-12T18:58:05.372Z,10.50
2023-01-12T19:00:34.784Z,10.50
2023-01-12T19:03:03.932Z,10.50
2023-01-12T19:05:36.436Z,10.30
2023-01-12T19:08:25.643Z,10.40
2023-01-12T19:10:53.929Z,10.30
2023-01-12T19:13:39.863Z,10.20
2023-01-12T19:16:32.197Z,10.30
2023-01-12T19:19:00.197Z,10.40
2023-01-12T19:22:00.429Z,10.50
2023-01-12T19:24:45.817Z,10.50
2023-01-12T19:27:32.088Z,10.50
2023-01-12T19:30:00.388Z,10.40
2023-01-12T19:32:29.746Z,10.50
2023-01-12T19:35:09.982Z,10.30
2023-01-12T19:37:38.735Z,10.20
2023-01-12T19:40:16.130Z,10.10
2023-01-12T19:43:01.579Z,10.20
2023-01-12T19:45:29.715Z,10.20
2023-01-12T19:48:03.533Z,10.20
2023-01-12T19:50:31.714Z,10.40
2023-01-12T19:52:59.732Z,10.50
2023-01-12T19:55:27.766Z,10.40
2023-01-12T19:57:57.130Z,10.20
2023-01-12T20:00:27.722Z,10.50
2023-01-12T20:02:55.727Z,10.60
2023-01-12T20:05:25.059Z,10.50
2023-01-12T20:07:54.555Z,10.50
2023-01-12T20:10:24.037Z,10.70
2023-01-12T20:12:52.426Z,10.60
2023-01-12T20:15:21.588Z,10.40
2023-01-12T20:17:50.244Z,10.40
2023-01-12T20:20:19.403Z,10.40
2023-01-12T20:22:50.924Z,10.40
2023-01-12T20:25:19.277Z,10.50
2023-01-12T20:27:49.082Z,10.50
2023-01-12T20:30:32.058Z,10.50
2023-01-12T20:33:04.361Z,10.60
2023-01-12T20:35:32.806Z,10.30
2023-01-12T20:38:06.545Z,10.10
2023-01-12T20:40:34.805Z,10.20
2023-01-12T20:43:02.831Z,10.20
2023-01-12T20:45:30.814Z,10.30
2023-01-12T20:47:58.841Z,10.30
2023-01-12T20:50:26.817Z,10.20
2023-01-12T20:52:55.070Z,10.30
2023-01-12T20:55:24.386Z,10.00
2023-01-12T20:57:52.402Z,10.00
2023-01-12T21:00:20.932Z,10.20
2023-01-12T21:02:48.984Z,10.00
2023-01-12T21:05:17.127Z,10.10
2023-01-12T21:07:45.254Z,10.00
2023-01-12T21:10:13.319Z,10.10
2023-01-12T21:12:42.756Z,10.20
2023-01-12T21:15:13.380Z,10.20
2023-01-12T21:17:42.762Z,10.30
2023-01-12T21:20:12.786Z,10.30
2023-01-12T21:22:40.784Z,10.30
2023-01-12T21:25:09.491Z,10.20
2023-01-12T21:27:37.976Z,10.00
2023-01-12T21:30:09.379Z,10.20
2023-01-12T21:32:37.368Z,10.30
2023-01-12T21:35:06.261Z,10.20
2023-01-12T21:37:34.351Z,10.30
2023-01-12T21:40:02.402Z,10.30
2023-01-12T21:42:48.725Z,10.30
2023-01-12T21:45:18.281Z,10.30
2023-01-12T21:47:46.803Z,10.30
2023-01-12T21:50:15.185Z,10.30
2023-01-12T21:52:43.440Z,10.20
2023-01-12T21:55:13.478Z,10.20
2023-01-12T21:57:43.927Z,10.20
2023-01-12T22:00:14.692Z,10.40
2023-01-12T22:02:44.312Z,10.30
2023-01-12T22:05:13.545Z,10.40
2023-01-12T22:07:41.746Z,10.40
2023-01-12T22:10:21.905Z,10.50
2023-01-12T22:12:52.143Z,10.20
2023-01-12T22:15:20.172Z,10.30
2023-01-12T22:17:51.162Z,10.40
2023-01-12T22:20:19.521Z,10.20
2023-01-12T22:22:47.613Z,10.20
2023-01-12T22:25:17.314Z,10.20
2023-01-12T22:27:46.008Z,10.30
2023-01-12T22:30:17.799Z,10.10
2023-01-12T22:32:45.955Z,10.20
2023-01-12T22:35:21.780Z,10.40
2023-01-12T22:37:49.966Z,10.30
2023-01-12T22:40:18.636Z,10.30
2023-01-12T22:43:03.882Z,10.30
2023-01-12T22:45:35.489Z,10.30
2023-01-12T22:48:03.497Z,10.30
2023-01-12T22:50:32.872Z,10.30
2023-01-12T22:53:00.822Z,10.40
2023-01-12T22:55:28.924Z,10.30
2023-01-12T22:57:56.863Z,10.20
2023-01-12T23:00:25.226Z,10.30
2023-01-12T23:03:02.852Z,10.30
2023-01-12T23:05:36.188Z,10.20
2023-01-12T23:08:06.951Z,10.20
2023-01-12T23:10:35.878Z,10.20
2023-01-12T23:13:15.517Z,10.20
2023-01-12T23:15:48.605Z,10.10
2023-01-12T23:18:18.781Z,10.20
2023-01-12T23:20:49.331Z,10.20
2023-01-12T23:23:18.483Z,10.10
2023-01-12T23:25:47.893Z,10.10
2023-01-12T23:28:16.867Z,9.90
2023-01-12T23:30:45.653Z,10.00
2023-01-12T23:33:13.627Z,10.10
2023-01-12T23:35:42.973Z,10.20
2023-01-12T23:38:16.782Z,10.30
2023-01-12T23:40:45.785Z,10.10
2023-01-12T23:43:13.944Z,10.00
2023-01-12T23:45:42.075Z,10.20
2023-01-12T23:48:10.553Z,10.40
2023-01-12T23:50:39.157Z,10.50
2023-01-12T23:53:07.327Z,10.30
2023-01-12T23:55:40.210Z,10.30
2023-01-12T23:58:08.240Z,10.40
